sensor_id;sensor_type;location;lat;lon;timestamp;temperature;humidity
54126;DHT22;40360;52.992;6.796;2022-09-09T00:00:24;14.20;99.90
54126;DHT22;40360;52.992;6.796;2022-09-09T00:05:52;14.20;99.90
54126;DHT22;40360;52.992;6.796;2022-09-09T00:08:21;14.20;99.90
54126;DHT22;40360;52.992;6.796;2022-09-09T00:10:54;14.10;99.90
54126;DHT22;40360;52.992;6.796;2022-09-09T00:13:46;14.00;99.90
54126;DHT22;40360;52.992;6.796;2022-09-09T00:16:22;14.50;99.90
54126;DHT22;40360;52.992;6.796;2022-09-09T00:21:51;13.90;99.90
54126;DHT22;40360;52.992;6.796;2022-09-09T00:24:45;13.90;99.90
54126;DHT22;40360;52.992;6.796;2022-09-09T00:27:26;13.90;99.90
54126;DHT22;40360;52.992;6.796;2022-09-09T00:32:38;13.80;99.90
54126;DHT22;40360;52.992;6.796;2022-09-09T00:35:22;13.80;99.90
54126;DHT22;40360;52.992;6.796;2022-09-09T00:37:52;13.80;99.90
54126;DHT22;40360;52.992;6.796;2022-09-09T00:40:33;13.80;99.90
54126;DHT22;40360;52.992;6.796;2022-09-09T00:43:30;13.80;99.90
54126;DHT22;40360;52.992;6.796;2022-09-09T00:46:37;13.80;99.90
54126;DHT22;40360;52.992;6.796;2022-09-09T00:54:57;13.80;99.90
54126;DHT22;40360;52.992;6.796;2022-09-09T00:57:29;13.80;99.90
54126;DHT22;40360;52.992;6.796;2022-09-09T00:59:58;13.80;99.90
54126;DHT22;40360;52.992;6.796;2022-09-09T01:02:28;13.80;99.90
54126;DHT22;40360;52.992;6.796;2022-09-09T01:04:54;13.80;99.90
54126;DHT22;40360;52.992;6.796;2022-09-09T01:07:20;13.70;99.90
54126;DHT22;40360;52.992;6.796;2022-09-09T01:09:57;13.70;99.90
54126;DHT22;40360;52.992;6.796;2022-09-09T01:12:27;13.80;99.90
54126;DHT22;40360;52.992;6.796;2022-09-09T01:15:08;13.70;99.90
54126;DHT22;40360;52.992;6.796;2022-09-09T01:20:14;13.70;99.90
54126;DHT22;40360;52.992;6.796;2022-09-09T01:27:48;13.80;99.90
54126;DHT22;40360;52.992;6.796;2022-09-09T01:30:17;13.80;99.90
54126;DHT22;40360;52.992;6.796;2022-09-09T01:32:46;13.80;99.90
54126;DHT22;40360;52.992;6.796;2022-09-09T01:35:29;13.80;99.90
54126;DHT22;40360;52.992;6.796;2022-09-09T01:37:57;13.90;99.90
54126;DHT22;40360;52.992;6.796;2022-09-09T01:40:25;13.90;99.90
54126;DHT22;40360;52.992;6.796;2022-09-09T01:42:52;13.90;99.90
54126;DHT22;40360;52.992;6.796;2022-09-09T01:45:18;13.90;99.90
54126;DHT22;40360;52.992;6.796;2022-09-09T01:47:45;13.90;99.90
54126;DHT22;40360;52.992;6.796;2022-09-09T01:50:13;14.10;99.90
54126;DHT22;40360;52.992;6.796;2022-09-09T01:52:40;14.00;99.90
54126;DHT22;40360;52.992;6.796;2022-09-09T01:55:06;14.00;99.90
54126;DHT22;40360;52.992;6.796;2022-09-09T01:58:25;14.00;99.90
54126;DHT22;40360;52.992;6.796;2022-09-09T02:00:32;14.00;99.90
54126;DHT22;40360;52.992;6.796;2022-09-09T02:08:50;14.10;99.90
54126;DHT22;40360;52.992;6.796;2022-09-09T02:11:21;14.10;99.90
54126;DHT22;40360;52.992;6.796;2022-09-09T02:13:50;14.00;99.90
54126;DHT22;40360;52.992;6.796;2022-09-09T02:16:23;14.50;99.90
54126;DHT22;40360;52.992;6.796;2022-09-09T02:18:51;14.10;99.90
54126;DHT22;40360;52.992;6.796;2022-09-09T02:21:19;14.10;99.90
54126;DHT22;40360;52.992;6.796;2022-09-09T02:23:46;14.10;99.90
54126;DHT22;40360;52.992;6.796;2022-09-09T02:26:13;14.60;99.90
54126;DHT22;40360;52.992;6.796;2022-09-09T02:28:46;14.20;99.90
54126;DHT22;40360;52.992;6.796;2022-09-09T02:31:13;14.70;99.90
54126;DHT22;40360;52.992;6.796;2022-09-09T02:33:44;14.20;99.90
54126;DHT22;40360;52.992;6.796;2022-09-09T02:36:12;14.30;99.90
54126;DHT22;40360;52.992;6.796;2022-09-09T02:38:46;14.30;99.90
54126;DHT22;40360;52.992;6.796;2022-09-09T02:41:23;14.40;99.90
54126;DHT22;40360;52.992;6.796;2022-09-09T02:43:49;14.30;99.90
54126;DHT22;40360;52.992;6.796;2022-09-09T02:46:57;14.30;99.90
54126;DHT22;40360;52.992;6.796;2022-09-09T02:52:13;14.40;99.90
54126;DHT22;40360;52.992;6.796;2022-09-09T02:54:41;14.40;99.90
54126;DHT22;40360;52.992;6.796;2022-09-09T02:57:25;14.40;99.90
54126;DHT22;40360;52.992;6.796;2022-09-09T02:59:53;15.00;99.90
54126;DHT22;40360;52.992;6.796;2022-09-09T03:02:20;14.40;99.90
54126;DHT22;40360;52.992;6.796;2022-09-09T03:04:45;14.50;99.90
54126;DHT22;40360;52.992;6.796;2022-09-09T03:07:16;14.50;99.90
54126;DHT22;40360;52.992;6.796;2022-09-09T03:09:42;14.50;99.90
54126;DHT22;40360;52.992;6.796;2022-09-09T03:12:08;14.50;99.90
54126;DHT22;40360;52.992;6.796;2022-09-09T03:14:34;14.50;99.90
54126;DHT22;40360;52.992;6.796;2022-09-09T03:17:00;15.10;99.90
54126;DHT22;40360;52.992;6.796;2022-09-09T03:19:27;14.90;99.90
54126;DHT22;40360;52.992;6.796;2022-09-09T03:21:53;14.60;99.90
54126;DHT22;40360;52.992;6.796;2022-09-09T03:24:19;14.60;99.90
54126;DHT22;40360;52.992;6.796;2022-09-09T03:26:45;14.60;99.90
54126;DHT22;40360;52.992;6.796;2022-09-09T03:29:12;14.70;99.90
54126;DHT22;40360;52.992;6.796;2022-09-09T03:31:38;14.60;99.90
54126;DHT22;40360;52.992;6.796;2022-09-09T03:34:04;14.60;99.90
54126;DHT22;40360;52.992;6.796;2022-09-09T03:36:30;14.60;99.90
54126;DHT22;40360;52.992;6.796;2022-09-09T03:38:55;14.60;99.90
54126;DHT22;40360;52.992;6.796;2022-09-09T03:41:25;14.80;99.90
54126;DHT22;40360;52.992;6.796;2022-09-09T03:43:51;14.60;99.90
54126;DHT22;40360;52.992;6.796;2022-09-09T03:46:18;14.60;99.90
54126;DHT22;40360;52.992;6.796;2022-09-09T03:48:44;14.60;99.90
54126;DHT22;40360;52.992;6.796;2022-09-09T03:51:10;14.50;99.90
54126;DHT22;40360;52.992;6.796;2022-09-09T03:53:36;14.50;99.90
54126;DHT22;40360;52.992;6.796;2022-09-09T03:56:04;14.60;99.90
54126;DHT22;40360;52.992;6.796;2022-09-09T03:58:32;14.60;99.90
54126;DHT22;40360;52.992;6.796;2022-09-09T04:03:25;14.70;99.90
54126;DHT22;40360;52.992;6.796;2022-09-09T04:05:51;14.60;99.90
54126;DHT22;40360;52.992;6.796;2022-09-09T04:08:18;14.60;99.90
54126;DHT22;40360;52.992;6.796;2022-09-09T04:10:46;14.60;99.90
54126;DHT22;40360;52.992;6.796;2022-09-09T04:13:13;14.60;99.90
54126;DHT22;40360;52.992;6.796;2022-09-09T04:15:40;14.60;99.90
54126;DHT22;40360;52.992;6.796;2022-09-09T04:18:06;14.50;99.90
54126;DHT22;40360;52.992;6.796;2022-09-09T04:20:32;14.50;99.90
54126;DHT22;40360;52.992;6.796;2022-09-09T04:22:58;15.10;99.90
54126;DHT22;40360;52.992;6.796;2022-09-09T04:25:23;15.40;99.90
54126;DHT22;40360;52.992;6.796;2022-09-09T04:27:54;14.50;99.90
54126;DHT22;40360;52.992;6.796;2022-09-09T04:30:20;14.50;99.90
54126;DHT22;40360;52.992;6.796;2022-09-09T04:32:46;14.50;99.90
54126;DHT22;40360;52.992;6.796;2022-09-09T04:35:12;14.50;99.90
54126;DHT22;40360;52.992;6.796;2022-09-09T04:37:37;14.50;99.90
54126;DHT22;40360;52.992;6.796;2022-09-09T04:40:03;14.50;99.90
54126;DHT22;40360;52.992;6.796;2022-09-09T04:42:29;14.50;99.90
54126;DHT22;40360;52.992;6.796;2022-09-09T04:44:55;14.50;99.90
54126;DHT22;40360;52.992;6.796;2022-09-09T04:47:20;14.50;99.90
54126;DHT22;40360;52.992;6.796;2022-09-09T04:49:46;14.70;99.90
54126;DHT22;40360;52.992;6.796;2022-09-09T04:52:12;14.40;99.90
54126;DHT22;40360;52.992;6.796;2022-09-09T04:54:38;14.40;99.90
54126;DHT22;40360;52.992;6.796;2022-09-09T04:57:04;14.40;99.90
54126;DHT22;40360;52.992;6.796;2022-09-09T04:59:30;14.40;99.90
54126;DHT22;40360;52.992;6.796;2022-09-09T05:01:56;14.40;99.90
54126;DHT22;40360;52.992;6.796;2022-09-09T05:20:59;14.80;99.90
54126;DHT22;40360;52.992;6.796;2022-09-09T05:23:25;14.30;99.90
54126;DHT22;40360;52.992;6.796;2022-09-09T05:25:55;14.30;99.90
54126;DHT22;40360;52.992;6.796;2022-09-09T05:28:22;14.30;99.90
54126;DHT22;40360;52.992;6.796;2022-09-09T05:30:57;14.30;99.90
54126;DHT22;40360;52.992;6.796;2022-09-09T05:33:23;14.30;99.90
54126;DHT22;40360;52.992;6.796;2022-09-09T05:35:55;14.30;99.90
54126;DHT22;40360;52.992;6.796;2022-09-09T05:38:21;14.30;99.90
54126;DHT22;40360;52.992;6.796;2022-09-09T05:40:49;14.30;99.90
54126;DHT22;40360;52.992;6.796;2022-09-09T05:43:15;14.30;99.90
54126;DHT22;40360;52.992;6.796;2022-09-09T05:45:40;14.30;99.90
54126;DHT22;40360;52.992;6.796;2022-09-09T05:48:06;14.40;99.90
54126;DHT22;40360;52.992;6.796;2022-09-09T05:50:33;14.30;99.90
54126;DHT22;40360;52.992;6.796;2022-09-09T05:52:58;14.40;99.90
54126;DHT22;40360;52.992;6.796;2022-09-09T05:55:24;14.40;99.90
54126;DHT22;40360;52.992;6.796;2022-09-09T05:57:51;14.40;99.90
54126;DHT22;40360;52.992;6.796;2022-09-09T06:00:17;14.80;99.90
54126;DHT22;40360;52.992;6.796;2022-09-09T06:02:43;14.40;99.90
54126;DHT22;40360;52.992;6.796;2022-09-09T06:05:09;14.40;99.90
54126;DHT22;40360;52.992;6.796;2022-09-09T06:07:36;14.40;99.90
54126;DHT22;40360;52.992;6.796;2022-09-09T06:10:02;14.40;99.90
54126;DHT22;40360;52.992;6.796;2022-09-09T06:12:28;14.40;99.90
54126;DHT22;40360;52.992;6.796;2022-09-09T06:14:54;14.40;99.90
54126;DHT22;40360;52.992;6.796;2022-09-09T06:17:19;14.50;99.90
54126;DHT22;40360;52.992;6.796;2022-09-09T06:19:45;14.40;99.90
54126;DHT22;40360;52.992;6.796;2022-09-09T06:22:10;14.50;99.90
54126;DHT22;40360;52.992;6.796;2022-09-09T06:24:37;15.00;99.90
54126;DHT22;40360;52.992;6.796;2022-09-09T06:27:03;14.50;99.90
54126;DHT22;40360;52.992;6.796;2022-09-09T06:29:30;14.50;99.90
54126;DHT22;40360;52.992;6.796;2022-09-09T06:31:56;14.60;99.90
54126;DHT22;40360;52.992;6.796;2022-09-09T06:34:22;14.60;99.90
54126;DHT22;40360;52.992;6.796;2022-09-09T06:36:47;14.70;99.90
54126;DHT22;40360;52.992;6.796;2022-09-09T06:39:13;14.70;99.90
54126;DHT22;40360;52.992;6.796;2022-09-09T06:41:41;14.80;99.90
54126;DHT22;40360;52.992;6.796;2022-09-09T06:44:07;14.80;99.90
54126;DHT22;40360;52.992;6.796;2022-09-09T06:46:33;14.90;99.90
54126;DHT22;40360;52.992;6.796;2022-09-09T06:49:00;14.90;99.90
54126;DHT22;40360;52.992;6.796;2022-09-09T06:51:34;14.90;99.90
54126;DHT22;40360;52.992;6.796;2022-09-09T06:54:00;15.00;99.90
54126;DHT22;40360;52.992;6.796;2022-09-09T06:58:55;15.10;99.90
54126;DHT22;40360;52.992;6.796;2022-09-09T07:01:23;15.10;99.90
54126;DHT22;40360;52.992;6.796;2022-09-09T07:03:53;15.20;99.90
54126;DHT22;40360;52.992;6.796;2022-09-09T07:09:13;15.30;99.90
54126;DHT22;40360;52.992;6.796;2022-09-09T07:11:47;15.30;99.90
54126;DHT22;40360;52.992;6.796;2022-09-09T07:14:14;15.40;99.90
54126;DHT22;40360;52.992;6.796;2022-09-09T07:16:43;15.40;99.90
54126;DHT22;40360;52.992;6.796;2022-09-09T07:19:09;16.00;99.90
54126;DHT22;40360;52.992;6.796;2022-09-09T07:21:35;15.60;99.90
54126;DHT22;40360;52.992;6.796;2022-09-09T07:24:01;15.60;99.90
54126;DHT22;40360;52.992;6.796;2022-09-09T07:26:29;15.60;99.90
54126;DHT22;40360;52.992;6.796;2022-09-09T07:28:55;15.70;99.90
54126;DHT22;40360;52.992;6.796;2022-09-09T07:31:29;15.70;99.90
54126;DHT22;40360;52.992;6.796;2022-09-09T07:33:56;15.70;99.90
54126;DHT22;40360;52.992;6.796;2022-09-09T07:36:24;15.80;99.90
54126;DHT22;40360;52.992;6.796;2022-09-09T07:38:53;15.80;99.90
54126;DHT22;40360;52.992;6.796;2022-09-09T07:41:22;15.90;99.90
54126;DHT22;40360;52.992;6.796;2022-09-09T07:43:49;16.00;99.90
54126;DHT22;40360;52.992;6.796;2022-09-09T07:46:16;15.90;99.90
54126;DHT22;40360;52.992;6.796;2022-09-09T07:48:46;16.00;99.90
54126;DHT22;40360;52.992;6.796;2022-09-09T07:51:17;16.00;99.90
54126;DHT22;40360;52.992;6.796;2022-09-09T07:53:46;16.10;99.90
54126;DHT22;40360;52.992;6.796;2022-09-09T07:56:14;16.10;99.90
54126;DHT22;40360;52.992;6.796;2022-09-09T07:58:44;16.10;99.90
54126;DHT22;40360;52.992;6.796;2022-09-09T08:01:12;16.20;99.90
54126;DHT22;40360;52.992;6.796;2022-09-09T08:03:38;16.20;99.90
54126;DHT22;40360;52.992;6.796;2022-09-09T08:06:05;16.30;99.90
54126;DHT22;40360;52.992;6.796;2022-09-09T08:08:33;16.40;99.90
54126;DHT22;40360;52.992;6.796;2022-09-09T08:11:13;16.40;99.90
54126;DHT22;40360;52.992;6.796;2022-09-09T08:13:41;16.50;99.90
54126;DHT22;40360;52.992;6.796;2022-09-09T08:16:12;16.40;99.90
54126;DHT22;40360;52.992;6.796;2022-09-09T08:18:39;16.80;99.90
54126;DHT22;40360;52.992;6.796;2022-09-09T08:23:32;16.90;99.90
54126;DHT22;40360;52.992;6.796;2022-09-09T08:26:04;17.60;99.90
54126;DHT22;40360;52.992;6.796;2022-09-09T08:28:30;17.30;99.90
54126;DHT22;40360;52.992;6.796;2022-09-09T08:31:04;17.10;99.90
54126;DHT22;40360;52.992;6.796;2022-09-09T08:33:30;17.10;99.90
54126;DHT22;40360;52.992;6.796;2022-09-09T08:35:55;17.20;99.90
54126;DHT22;40360;52.992;6.796;2022-09-09T08:38:21;17.30;99.90
54126;DHT22;40360;52.992;6.796;2022-09-09T08:40:48;17.40;99.90
54126;DHT22;40360;52.992;6.796;2022-09-09T08:43:16;17.50;99.90
54126;DHT22;40360;52.992;6.796;2022-09-09T08:45:57;17.60;99.90
54126;DHT22;40360;52.992;6.796;2022-09-09T08:48:36;17.70;99.90
54126;DHT22;40360;52.992;6.796;2022-09-09T08:51:06;17.80;99.90
54126;DHT22;40360;52.992;6.796;2022-09-09T08:53:45;18.00;99.90
54126;DHT22;40360;52.992;6.796;2022-09-09T08:56:14;18.10;99.90
54126;DHT22;40360;52.992;6.796;2022-09-09T08:58:50;18.20;99.90
54126;DHT22;40360;52.992;6.796;2022-09-09T09:07:03;18.40;99.90
54126;DHT22;40360;52.992;6.796;2022-09-09T09:12:20;18.70;99.90
54126;DHT22;40360;52.992;6.796;2022-09-09T09:14:47;18.80;99.90
54126;DHT22;40360;52.992;6.796;2022-09-09T09:17:19;18.80;99.90
54126;DHT22;40360;52.992;6.796;2022-09-09T09:19:47;18.70;99.90
54126;DHT22;40360;52.992;6.796;2022-09-09T09:22:28;18.80;99.90
54126;DHT22;40360;52.992;6.796;2022-09-09T09:25:15;18.80;99.90
54126;DHT22;40360;52.992;6.796;2022-09-09T09:30:42;18.60;99.90
54126;DHT22;40360;52.992;6.796;2022-09-09T09:36:02;18.30;99.90
54126;DHT22;40360;52.992;6.796;2022-09-09T09:38:29;18.20;99.90
54126;DHT22;40360;52.992;6.796;2022-09-09T09:40:58;18.20;99.90
54126;DHT22;40360;52.992;6.796;2022-09-09T09:43:35;18.30;99.90
54126;DHT22;40360;52.992;6.796;2022-09-09T09:46:03;18.30;99.90
54126;DHT22;40360;52.992;6.796;2022-09-09T09:48:30;18.30;99.90
54126;DHT22;40360;52.992;6.796;2022-09-09T09:51:04;18.30;99.90
54126;DHT22;40360;52.992;6.796;2022-09-09T09:53:34;18.50;99.90
54126;DHT22;40360;52.992;6.796;2022-09-09T09:56:10;18.60;99.90
54126;DHT22;40360;52.992;6.796;2022-09-09T09:58:55;18.80;99.90
54126;DHT22;40360;52.992;6.796;2022-09-09T10:03:52;18.80;99.90
54126;DHT22;40360;52.992;6.796;2022-09-09T10:06:32;18.90;99.90
54126;DHT22;40360;52.992;6.796;2022-09-09T10:08:59;19.10;99.90
54126;DHT22;40360;52.992;6.796;2022-09-09T10:14:24;19.20;99.90
54126;DHT22;40360;52.992;6.796;2022-09-09T10:20:31;19.30;99.90
54126;DHT22;40360;52.992;6.796;2022-09-09T10:22:33;19.20;99.90
54126;DHT22;40360;52.992;6.796;2022-09-09T10:27:54;19.20;99.90
54126;DHT22;40360;52.992;6.796;2022-09-09T10:33:34;19.30;99.90
54126;DHT22;40360;52.992;6.796;2022-09-09T10:36:23;19.30;99.90
54126;DHT22;40360;52.992;6.796;2022-09-09T10:44:53;19.20;99.90
54126;DHT22;40360;52.992;6.796;2022-09-09T10:50:18;19.40;99.90
54126;DHT22;40360;52.992;6.796;2022-09-09T10:53:09;19.60;99.90
54126;DHT22;40360;52.992;6.796;2022-09-09T10:55:42;19.70;99.90
54126;DHT22;40360;52.992;6.796;2022-09-09T10:58:29;20.10;99.90
54126;DHT22;40360;52.992;6.796;2022-09-09T11:01:02;19.80;99.90
54126;DHT22;40360;52.992;6.796;2022-09-09T11:03:31;19.90;99.90
54126;DHT22;40360;52.992;6.796;2022-09-09T11:06:06;19.90;99.90
54126;DHT22;40360;52.992;6.796;2022-09-09T11:08:38;19.80;99.90
54126;DHT22;40360;52.992;6.796;2022-09-09T11:11:21;19.80;99.90
54126;DHT22;40360;52.992;6.796;2022-09-09T11:16:39;19.70;99.90
54126;DHT22;40360;52.992;6.796;2022-09-09T11:21:55;20.30;99.90
54126;DHT22;40360;52.992;6.796;2022-09-09T11:35:30;21.30;99.90
54126;DHT22;40360;52.992;6.796;2022-09-09T11:38:19;21.40;99.90
54126;DHT22;40360;52.992;6.796;2022-09-09T11:40:54;21.40;99.90
54126;DHT22;40360;52.992;6.796;2022-09-09T11:43:30;21.50;99.90
54126;DHT22;40360;52.992;6.796;2022-09-09T11:45:59;21.40;99.90
54126;DHT22;40360;52.992;6.796;2022-09-09T11:49:21;21.50;99.90
54126;DHT22;40360;52.992;6.796;2022-09-09T11:54:29;21.10;99.90
54126;DHT22;40360;52.992;6.796;2022-09-09T11:56:54;21.10;99.90
54126;DHT22;40360;52.992;6.796;2022-09-09T11:59:23;21.50;99.90
54126;DHT22;40360;52.992;6.796;2022-09-09T12:05:12;21.30;99.90
54126;DHT22;40360;52.992;6.796;2022-09-09T12:07:42;21.30;99.90
54126;DHT22;40360;52.992;6.796;2022-09-09T12:12:47;21.30;99.90
54126;DHT22;40360;52.992;6.796;2022-09-09T12:15:17;21.50;99.90
54126;DHT22;40360;52.992;6.796;2022-09-09T12:17:48;21.20;99.90
54126;DHT22;40360;52.992;6.796;2022-09-09T12:20:22;21.30;99.90
54126;DHT22;40360;52.992;6.796;2022-09-09T12:25:46;21.60;99.90
54126;DHT22;40360;52.992;6.796;2022-09-09T12:31:15;22.30;99.90
54126;DHT22;40360;52.992;6.796;2022-09-09T12:33:44;22.30;99.90
54126;DHT22;40360;52.992;6.796;2022-09-09T12:36:29;22.30;99.90
54126;DHT22;40360;52.992;6.796;2022-09-09T12:38:58;22.40;99.90
54126;DHT22;40360;52.992;6.796;2022-09-09T12:41:26;22.50;99.90
54126;DHT22;40360;52.992;6.796;2022-09-09T12:44:08;22.80;99.90
54126;DHT22;40360;52.992;6.796;2022-09-09T12:46:40;22.70;99.90
54126;DHT22;40360;52.992;6.796;2022-09-09T12:49:36;22.80;99.90
54126;DHT22;40360;52.992;6.796;2022-09-09T12:52:30;22.50;99.90
54126;DHT22;40360;52.992;6.796;2022-09-09T12:54:59;22.40;99.90
54126;DHT22;40360;52.992;6.796;2022-09-09T12:57:31;22.60;99.90
54126;DHT22;40360;52.992;6.796;2022-09-09T13:00:15;22.60;99.90
54126;DHT22;40360;52.992;6.796;2022-09-09T13:02:55;22.60;99.90
54126;DHT22;40360;52.992;6.796;2022-09-09T13:08:01;22.50;99.90
54126;DHT22;40360;52.992;6.796;2022-09-09T13:10:29;22.30;99.90
54126;DHT22;40360;52.992;6.796;2022-09-09T13:12:57;22.50;99.90
54126;DHT22;40360;52.992;6.796;2022-09-09T13:15:26;21.60;99.90
54126;DHT22;40360;52.992;6.796;2022-09-09T13:17:58;21.50;99.90
54126;DHT22;40360;52.992;6.796;2022-09-09T13:20:26;21.40;99.90
54126;DHT22;40360;52.992;6.796;2022-09-09T13:22:54;21.30;99.90
54126;DHT22;40360;52.992;6.796;2022-09-09T13:25:26;21.30;99.90
54126;DHT22;40360;52.992;6.796;2022-09-09T13:28:03;21.20;99.90
54126;DHT22;40360;52.992;6.796;2022-09-09T13:38:14;20.60;99.90
54126;DHT22;40360;52.992;6.796;2022-09-09T13:40:40;20.40;99.90
54126;DHT22;40360;52.992;6.796;2022-09-09T13:43:21;20.30;99.90
54126;DHT22;40360;52.992;6.796;2022-09-09T13:46:03;20.30;99.90
54126;DHT22;40360;52.992;6.796;2022-09-09T13:48:30;20.10;99.90
54126;DHT22;40360;52.992;6.796;2022-09-09T13:51:03;20.10;99.90
54126;DHT22;40360;52.992;6.796;2022-09-09T13:53:32;20.20;99.90
54126;DHT22;40360;52.992;6.796;2022-09-09T13:55:58;20.30;99.90
54126;DHT22;40360;52.992;6.796;2022-09-09T13:58:24;20.50;99.90
54126;DHT22;40360;52.992;6.796;2022-09-09T14:00:51;20.70;99.90
54126;DHT22;40360;52.992;6.796;2022-09-09T14:03:17;20.90;99.90
54126;DHT22;40360;52.992;6.796;2022-09-09T14:05:44;21.30;99.90
54126;DHT22;40360;52.992;6.796;2022-09-09T14:08:16;21.10;99.90
54126;DHT22;40360;52.992;6.796;2022-09-09T14:10:43;21.10;99.90
54126;DHT22;40360;52.992;6.796;2022-09-09T14:13:09;20.90;99.90
54126;DHT22;40360;52.992;6.796;2022-09-09T14:15:35;20.80;99.90
54126;DHT22;40360;52.992;6.796;2022-09-09T14:18:01;20.90;99.90
54126;DHT22;40360;52.992;6.796;2022-09-09T14:20:27;21.00;99.90
54126;DHT22;40360;52.992;6.796;2022-09-09T14:22:53;21.00;99.90
54126;DHT22;40360;52.992;6.796;2022-09-09T14:25:18;21.10;99.90
54126;DHT22;40360;52.992;6.796;2022-09-09T14:27:44;22.00;99.90
54126;DHT22;40360;52.992;6.796;2022-09-09T14:30:13;21.90;99.90
54126;DHT22;40360;52.992;6.796;2022-09-09T14:32:38;21.20;99.90
54126;DHT22;40360;52.992;6.796;2022-09-09T14:35:04;21.20;99.90
54126;DHT22;40360;52.992;6.796;2022-09-09T14:37:30;21.20;99.90
54126;DHT22;40360;52.992;6.796;2022-09-09T14:39:57;21.30;99.90
54126;DHT22;40360;52.992;6.796;2022-09-09T14:42:22;21.30;99.90
54126;DHT22;40360;52.992;6.796;2022-09-09T14:44:48;21.30;99.90
54126;DHT22;40360;52.992;6.796;2022-09-09T14:47:14;21.20;99.90
54126;DHT22;40360;52.992;6.796;2022-09-09T14:49:39;20.90;99.90
54126;DHT22;40360;52.992;6.796;2022-09-09T14:52:05;20.70;99.90
54126;DHT22;40360;52.992;6.796;2022-09-09T14:54:32;20.30;99.90
54126;DHT22;40360;52.992;6.796;2022-09-09T14:56:58;20.10;99.90
54126;DHT22;40360;52.992;6.796;2022-09-09T14:59:24;19.90;99.90
54126;DHT22;40360;52.992;6.796;2022-09-09T15:01:49;19.70;99.90
54126;DHT22;40360;52.992;6.796;2022-09-09T15:04:15;19.60;99.90
54126;DHT22;40360;52.992;6.796;2022-09-09T15:06:42;19.50;99.90
54126;DHT22;40360;52.992;6.796;2022-09-09T15:09:10;19.30;99.90
54126;DHT22;40360;52.992;6.796;2022-09-09T15:11:37;19.50;99.90
54126;DHT22;40360;52.992;6.796;2022-09-09T15:14:04;19.40;99.90
54126;DHT22;40360;52.992;6.796;2022-09-09T15:16:30;19.30;99.90
54126;DHT22;40360;52.992;6.796;2022-09-09T15:18:59;19.30;99.90
54126;DHT22;40360;52.992;6.796;2022-09-09T15:21:30;19.40;99.90
54126;DHT22;40360;52.992;6.796;2022-09-09T15:23:57;19.40;99.90
54126;DHT22;40360;52.992;6.796;2022-09-09T15:26:23;19.40;99.90
54126;DHT22;40360;52.992;6.796;2022-09-09T15:28:49;19.30;99.90
54126;DHT22;40360;52.992;6.796;2022-09-09T15:31:21;19.40;99.90
54126;DHT22;40360;52.992;6.796;2022-09-09T15:36:22;19.30;99.90
54126;DHT22;40360;52.992;6.796;2022-09-09T15:38:48;19.20;99.90
54126;DHT22;40360;52.992;6.796;2022-09-09T15:41:15;19.30;99.90
54126;DHT22;40360;52.992;6.796;2022-09-09T15:43:47;19.20;99.90
54126;DHT22;40360;52.992;6.796;2022-09-09T15:49:09;19.30;99.90
54126;DHT22;40360;52.992;6.796;2022-09-09T15:51:36;19.30;99.90
54126;DHT22;40360;52.992;6.796;2022-09-09T15:54:03;19.30;99.90
54126;DHT22;40360;52.992;6.796;2022-09-09T15:56:30;19.60;99.90
54126;DHT22;40360;52.992;6.796;2022-09-09T15:58:56;19.30;99.90
54126;DHT22;40360;52.992;6.796;2022-09-09T16:01:22;19.30;99.90
54126;DHT22;40360;52.992;6.796;2022-09-09T16:03:48;19.20;99.90
54126;DHT22;40360;52.992;6.796;2022-09-09T16:06:18;19.00;99.90
54126;DHT22;40360;52.992;6.796;2022-09-09T16:08:45;19.00;99.90
54126;DHT22;40360;52.992;6.796;2022-09-09T16:11:14;19.10;99.90
54126;DHT22;40360;52.992;6.796;2022-09-09T16:13:41;19.20;99.90
54126;DHT22;40360;52.992;6.796;2022-09-09T16:16:09;18.90;99.90
54126;DHT22;40360;52.992;6.796;2022-09-09T16:18:37;18.70;99.90
54126;DHT22;40360;52.992;6.796;2022-09-09T16:21:04;18.70;99.90
54126;DHT22;40360;52.992;6.796;2022-09-09T16:23:31;18.60;99.90
54126;DHT22;40360;52.992;6.796;2022-09-09T16:25:57;18.70;99.90
54126;DHT22;40360;52.992;6.796;2022-09-09T16:28:23;18.60;99.90
54126;DHT22;40360;52.992;6.796;2022-09-09T16:30:49;18.40;99.90
54126;DHT22;40360;52.992;6.796;2022-09-09T16:33:16;18.40;99.90
54126;DHT22;40360;52.992;6.796;2022-09-09T16:35:42;18.30;99.90
54126;DHT22;40360;52.992;6.796;2022-09-09T16:38:08;18.30;99.90
54126;DHT22;40360;52.992;6.796;2022-09-09T16:40:34;19.10;99.90
54126;DHT22;40360;52.992;6.796;2022-09-09T16:43:00;18.30;99.90
54126;DHT22;40360;52.992;6.796;2022-09-09T16:45:26;18.30;99.90
54126;DHT22;40360;52.992;6.796;2022-09-09T16:47:53;18.30;99.90
54126;DHT22;40360;52.992;6.796;2022-09-09T16:50:18;18.20;99.90
54126;DHT22;40360;52.992;6.796;2022-09-09T16:52:44;18.20;99.90
54126;DHT22;40360;52.992;6.796;2022-09-09T16:55:10;19.00;99.90
54126;DHT22;40360;52.992;6.796;2022-09-09T16:57:35;18.20;99.90
54126;DHT22;40360;52.992;6.796;2022-09-09T17:00:01;18.20;99.90
54126;DHT22;40360;52.992;6.796;2022-09-09T17:02:30;18.30;99.90
54126;DHT22;40360;52.992;6.796;2022-09-09T17:04:55;18.30;99.90
54126;DHT22;40360;52.992;6.796;2022-09-09T17:07:21;18.30;99.90
54126;DHT22;40360;52.992;6.796;2022-09-09T17:09:48;18.30;99.90
54126;DHT22;40360;52.992;6.796;2022-09-09T17:12:14;18.30;99.90
54126;DHT22;40360;52.992;6.796;2022-09-09T17:14:39;18.30;99.90
54126;DHT22;40360;52.992;6.796;2022-09-09T17:17:05;18.30;99.90
54126;DHT22;40360;52.992;6.796;2022-09-09T17:19:31;18.20;99.90
54126;DHT22;40360;52.992;6.796;2022-09-09T17:21:56;18.20;99.90
54126;DHT22;40360;52.992;6.796;2022-09-09T17:24:25;18.20;99.90
54126;DHT22;40360;52.992;6.796;2022-09-09T17:26:51;18.10;99.90
54126;DHT22;40360;52.992;6.796;2022-09-09T17:29:17;18.10;99.90
54126;DHT22;40360;52.992;6.796;2022-09-09T17:31:43;18.10;99.90
54126;DHT22;40360;52.992;6.796;2022-09-09T17:34:09;18.10;99.90
54126;DHT22;40360;52.992;6.796;2022-09-09T17:36:35;18.70;99.90
54126;DHT22;40360;52.992;6.796;2022-09-09T17:39:03;18.00;99.90
54126;DHT22;40360;52.992;6.796;2022-09-09T17:41:34;18.00;99.90
54126;DHT22;40360;52.992;6.796;2022-09-09T17:44:00;18.00;99.90
54126;DHT22;40360;52.992;6.796;2022-09-09T17:46:28;18.00;99.90
54126;DHT22;40360;52.992;6.796;2022-09-09T17:48:59;18.00;99.90
54126;DHT22;40360;52.992;6.796;2022-09-09T17:51:27;18.10;99.90
54126;DHT22;40360;52.992;6.796;2022-09-09T17:53:57;17.90;99.90
54126;DHT22;40360;52.992;6.796;2022-09-09T17:56:25;18.60;99.90
54126;DHT22;40360;52.992;6.796;2022-09-09T17:58:52;17.80;99.90
54126;DHT22;40360;52.992;6.796;2022-09-09T18:01:32;17.80;99.90
54126;DHT22;40360;52.992;6.796;2022-09-09T18:04:00;17.80;99.90
54126;DHT22;40360;52.992;6.796;2022-09-09T18:06:30;17.80;99.90